createdAt,value
2023-04-19T00:01:05.171Z,99718.08
2023-04-19T00:03:33.350Z,99713.20
2023-04-19T00:06:02.578Z,99712.81
2023-04-19T00:08:31.120Z,99713.44
2023-04-19T00:10:59.122Z,99716.09
2023-04-19T00:13:27.223Z,99718.14
2023-04-19T00:15:55.400Z,99715.55
2023-04-19T00:18:23.599Z,99712.40
2023-04-19T00:20:52.062Z,99711.98
2023-04-19T00:23:21.366Z,99708.73
2023-04-19T00:25:49.561Z,99708.65
2023-04-19T00:28:17.785Z,99703.65
2023-04-19T00:30:45.921Z,99700.30
2023-04-19T00:33:14.004Z,99697.77
2023-04-19T00:35:42.425Z,99696.00
2023-04-19T00:38:11.058Z,99693.64
2023-04-19T00:40:39.374Z,99690.98
2023-04-19T00:43:07.761Z,99692.58
2023-04-19T00:45:37.024Z,99685.73
2023-04-19T00:48:05.324Z,99685.27
2023-04-19T00:50:36.140Z,99683.06
2023-04-19T00:53:04.208Z,99681.95
2023-04-19T00:55:32.796Z,99680.54
2023-04-19T00:58:00.788Z,99681.21
2023-04-19T01:00:28.852Z,99680.65
2023-04-19T01:02:57.034Z,99682.59
2023-04-19T01:05:25.295Z,99676.47
2023-04-19T01:07:53.281Z,99676.31
2023-04-19T01:10:21.215Z,99672.83
2023-04-19T01:12:51.669Z,99665.79
2023-04-19T01:15:19.760Z,99665.02
2023-04-19T01:17:51.343Z,99661.48
2023-04-19T01:20:20.338Z,99663.36
2023-04-19T01:22:48.300Z,99661.52
2023-04-19T01:25:16.914Z,99658.31
2023-04-19T01:27:44.918Z,99659.46
2023-04-19T01:30:13.174Z,99657.50
2023-04-19T01:32:41.687Z,99658.48
2023-04-19T01:35:11.525Z,99659.00
2023-04-19T01:37:40.250Z,99654.01
2023-04-19T01:40:11.915Z,99650.84
2023-04-19T01:42:39.940Z,99655.81
2023-04-19T01:45:08.468Z,99648.61
2023-04-19T01:47:36.542Z,99645.23
2023-04-19T01:50:04.941Z,99649.93
2023-04-19T01:52:33.340Z,99650.40
2023-04-19T01:55:01.542Z,99651.57
2023-04-19T01:58:35.757Z,99651.23
2023-04-19T02:01:03.898Z,99650.39
2023-04-19T02:03:33.766Z,99649.39
2023-04-19T02:06:02.194Z,99647.76
2023-04-19T02:08:30.498Z,99646.78
2023-04-19T02:10:58.827Z,99644.94
2023-04-19T02:13:26.787Z,99641.04
2023-04-19T02:15:54.886Z,99633.70
2023-04-19T02:18:24.259Z,99631.38
2023-04-19T02:20:52.188Z,99632.07
2023-04-19T02:23:22.006Z,99635.79
2023-04-19T02:25:50.079Z,99637.70
2023-04-19T02:28:18.542Z,99635.79
2023-04-19T02:30:46.834Z,99631.63
2023-04-19T02:33:15.147Z,99635.92
2023-04-19T02:35:43.091Z,99638.30
2023-04-19T02:38:11.860Z,99635.17
2023-04-19T02:40:40.077Z,99632.94
2023-04-19T02:43:08.108Z,99636.65
2023-04-19T02:45:37.330Z,99639.67
2023-04-19T02:48:05.895Z,99639.55
2023-04-19T02:50:34.007Z,99638.04
2023-04-19T02:53:01.991Z,99638.42
2023-04-19T02:55:30.249Z,99637.88
2023-04-19T02:58:11.437Z,99639.28
2023-04-19T03:00:44.278Z,99641.47
2023-04-19T03:03:15.842Z,99643.37
2023-04-19T03:05:43.983Z,99639.44
2023-04-19T03:08:12.111Z,99645.48
2023-04-19T03:11:00.124Z,99642.44
2023-04-19T03:13:28.930Z,99642.21
2023-04-19T03:15:57.090Z,99639.80
2023-04-19T03:18:25.018Z,99635.30
2023-04-19T03:20:54.192Z,99634.29
2023-04-19T03:23:22.445Z,99630.55
2023-04-19T03:25:51.295Z,99624.80
2023-04-19T03:28:51.829Z,99621.66
2023-04-19T03:31:20.078Z,99621.19
2023-04-19T03:33:50.778Z,99616.39
2023-04-19T03:36:19.405Z,99623.34
2023-04-19T03:38:47.615Z,99622.77
2023-04-19T03:41:24.486Z,99622.05
2023-04-19T03:44:10.500Z,99619.59
2023-04-19T03:46:38.984Z,99618.06
2023-04-19T03:49:07.154Z,99616.54
2023-04-19T03:51:36.046Z,99614.33
2023-04-19T03:54:04.193Z,99613.21
2023-04-19T03:56:32.522Z,99612.42
2023-04-19T03:59:00.564Z,99619.25
2023-04-19T04:01:29.371Z,99620.43
2023-04-19T04:03:57.732Z,99623.11
2023-04-19T04:06:28.027Z,99622.56
2023-04-19T04:08:56.681Z,99625.66
2023-04-19T04:11:26.324Z,99627.07
2023-04-19T04:13:56.198Z,99623.34
2023-04-19T04:16:27.974Z,99621.27
2023-04-19T04:18:56.274Z,99616.71
2023-04-19T04:21:27.479Z,99619.41
2023-04-19T04:23:57.489Z,99617.00
2023-04-19T04:26:34.107Z,99619.23
2023-04-19T04:29:23.711Z,99612.42
2023-04-19T04:31:53.019Z,99612.26
2023-04-19T04:34:24.859Z,99610.56
2023-04-19T04:36:58.865Z,99614.20
2023-04-19T04:39:27.052Z,99614.77
2023-04-19T04:41:58.024Z,99614.98
2023-04-19T04:44:26.249Z,99616.17
2023-04-19T04:46:54.644Z,99618.61
2023-04-19T04:49:26.559Z,99618.74
2023-04-19T04:51:54.840Z,99617.02
2023-04-19T04:54:22.908Z,99615.02
2023-04-19T04:56:51.324Z,99620.27
2023-04-19T04:59:19.543Z,99623.48
2023-04-19T05:01:49.101Z,99617.94
2023-04-19T05:04:17.720Z,99619.31
2023-04-19T05:06:46.939Z,99620.77
2023-04-19T05:09:20.396Z,99622.59
2023-04-19T05:11:48.326Z,99621.21
2023-04-19T05:14:16.985Z,99623.89
2023-04-19T05:16:45.583Z,99625.16
2023-04-19T05:19:13.793Z,99625.80
2023-04-19T05:21:46.411Z,99629.02
2023-04-19T05:24:15.861Z,99627.98
2023-04-19T05:26:44.463Z,99627.80
2023-04-19T05:29:13.035Z,99624.70
2023-04-19T05:31:53.122Z,99623.85
2023-04-19T05:34:44.121Z,99626.58
2023-04-19T05:37:14.032Z,99626.05
2023-04-19T05:39:44.612Z,99626.65
2023-04-19T05:42:13.932Z,99622.89
2023-04-19T05:44:42.013Z,99621.70
2023-04-19T05:47:10.522Z,99624.45
2023-04-19T05:50:04.024Z,99618.80
2023-04-19T05:52:36.237Z,99623.97
2023-04-19T05:55:06.172Z,99625.09
2023-04-19T05:57:36.503Z,99625.48
2023-04-19T06:00:05.630Z,99624.26
2023-04-19T06:02:47.284Z,99625.61
2023-04-19T06:05:15.923Z,99619.55
2023-04-19T06:07:54.502Z,99624.67
2023-04-19T06:10:40.181Z,99626.70
2023-04-19T06:13:17.498Z,99622.83
2023-04-19T06:15:46.444Z,99621.41
2023-04-19T06:18:19.108Z,99617.90
2023-04-19T06:20:47.820Z,99608.98
2023-04-19T06:23:17.850Z,99613.05
2023-04-19T06:25:49.229Z,99612.70
2023-04-19T06:28:17.564Z,99615.51
2023-04-19T06:30:45.962Z,99619.64
2023-04-19T06:33:14.076Z,99619.92
2023-04-19T06:35:42.700Z,99620.31
2023-04-19T06:38:10.882Z,99621.62
2023-04-19T06:40:39.799Z,99620.63
2023-04-19T06:43:07.986Z,99617.66
2023-04-19T06:45:36.521Z,99614.80
2023-04-19T06:48:05.704Z,99616.47
2023-04-19T06:50:34.007Z,99616.41
2023-04-19T06:53:04.602Z,99612.38
2023-04-19T06:55:33.521Z,99612.31
2023-04-19T06:58:01.890Z,99613.64
2023-04-19T07:00:31.335Z,99611.84
2023-04-19T07:03:00.717Z,99611.80
2023-04-19T07:05:30.555Z,99614.94
2023-04-19T07:07:58.706Z,99614.84
2023-04-19T07:10:27.098Z,99612.66
2023-04-19T07:12:55.561Z,99609.98
2023-04-19T07:15:24.291Z,99609.05
2023-04-19T07:17:52.715Z,99607.23
2023-04-19T07:20:21.966Z,99604.30
2023-04-19T07:22:50.174Z,99609.65
2023-04-19T07:25:18.547Z,99609.07
2023-04-19T07:27:47.307Z,99608.28
2023-04-19T07:30:17.287Z,99609.46
2023-04-19T07:32:46.591Z,99607.32
2023-04-19T07:35:15.425Z,99605.92
2023-04-19T07:37:43.958Z,99602.98
2023-04-19T07:40:13.348Z,99604.73
2023-04-19T07:42:43.399Z,99604.52
2023-04-19T07:45:11.917Z,99604.52
2023-04-19T07:47:40.125Z,99605.81
2023-04-19T07:50:09.389Z,99602.73
2023-04-19T07:52:37.973Z,99603.92
2023-04-19T07:55:07.657Z,99599.55
2023-04-19T07:57:36.153Z,99597.50
2023-04-19T08:00:05.079Z,99601.08
2023-04-19T08:02:45.359Z,99598.89
2023-04-19T08:05:17.786Z,99593.88
2023-04-19T08:07:46.652Z,99591.41
2023-04-19T08:10:15.166Z,99589.45
2023-04-19T08:12:50.699Z,99584.95
2023-04-19T08:18:05.691Z,99584.95
2023-04-19T08:20:34.095Z,99587.23
2023-04-19T08:23:13.904Z,99585.52
2023-04-19T08:25:42.634Z,99584.19
2023-04-19T08:28:11.765Z,99579.60
2023-04-19T08:30:40.796Z,99576.79
2023-04-19T08:33:08.901Z,99575.04
2023-04-19T08:35:41.047Z,99565.05
2023-04-19T08:38:09.840Z,99567.57
2023-04-19T08:40:42.033Z,99567.41
2023-04-19T08:43:10.266Z,99564.96
2023-04-19T08:45:38.317Z,99565.27
2023-04-19T08:48:06.614Z,99560.58
2023-04-19T08:50:45.502Z,99552.11
2023-04-19T08:53:24.935Z,99551.52
2023-04-19T08:56:12.937Z,99558.98
2023-04-19T09:01:30.435Z,99550.96
2023-04-19T09:04:17.364Z,99546.09
2023-04-19T09:06:51.567Z,99548.91
2023-04-19T09:09:36.664Z,99548.80
2023-04-19T09:12:17.807Z,99550.20
2023-04-19T09:17:18.573Z,99545.70
2023-04-19T09:19:48.102Z,99545.37
2023-04-19T09:22:16.791Z,99548.83
2023-04-19T09:27:16.892Z,99548.26
2023-04-19T09:29:53.358Z,99549.20
2023-04-19T09:32:22.325Z,99544.42
2023-04-19T09:35:00.094Z,99547.04
2023-04-19T09:39:59.386Z,99548.38
2023-04-19T09:48:09.346Z,99548.38
2023-04-19T09:50:58.556Z,99541.91
2023-04-19T09:53:29.907Z,99539.60
2023-04-19T09:56:02.136Z,99540.04
2023-04-19T09:58:46.335Z,99527.30
2023-04-19T10:01:19.555Z,99522.20
2023-04-19T10:03:49.937Z,99526.77
2023-04-19T10:08:50.607Z,99532.27
2023-04-19T10:11:22.773Z,99534.65
2023-04-19T10:13:53.276Z,99534.46
2023-04-19T10:16:21.776Z,99529.36
2023-04-19T10:18:50.660Z,99528.71
2023-04-19T10:21:19.340Z,99526.20
2023-04-19T10:23:47.531Z,99535.86
2023-04-19T10:26:16.213Z,99535.45
2023-04-19T10:28:44.390Z,99538.38
2023-04-19T10:31:16.271Z,99540.78
2023-04-19T10:33:44.541Z,99538.09
2023-04-19T10:36:14.921Z,99538.18
2023-04-19T10:38:45.910Z,99542.40
2023-04-19T10:41:18.821Z,99538.83
2023-04-19T10:43:48.472Z,99542.98
2023-04-19T10:46:23.416Z,99547.02
2023-04-19T10:48:55.274Z,99546.48
2023-04-19T10:51:27.939Z,99544.69
2023-04-19T10:53:57.768Z,99543.27
2023-04-19T10:56:35.096Z,99544.24
2023-04-19T10:59:03.084Z,99546.52
2023-04-19T11:01:38.225Z,99547.59
2023-04-19T11:04:07.753Z,99545.04
2023-04-19T11:06:37.656Z,99541.06
2023-04-19T11:09:07.308Z,99543.85
2023-04-19T11:11:36.431Z,99547.06
2023-04-19T11:14:05.709Z,99549.86
2023-04-19T11:16:45.106Z,99551.56
2023-04-19T11:19:18.151Z,99546.80
2023-04-19T11:21:46.865Z,99548.50
2023-04-19T11:24:19.191Z,99551.12
2023-04-19T11:26:48.190Z,99552.02
2023-04-19T11:29:17.159Z,99550.75
2023-04-19T11:31:46.681Z,99556.19
2023-04-19T11:34:15.347Z,99556.56
2023-04-19T11:36:52.955Z,99559.13
2023-04-19T11:39:21.919Z,99559.89
2023-04-19T11:41:50.044Z,99564.06
2023-04-19T11:44:20.585Z,99567.11
2023-04-19T11:46:59.844Z,99566.95
2023-04-19T11:49:29.278Z,99563.36
2023-04-19T11:52:03.107Z,99562.98
2023-04-19T11:54:33.886Z,99563.58
2023-04-19T11:57:06.152Z,99567.79
2023-04-19T11:59:36.226Z,99562.73
2023-04-19T12:02:11.733Z,99569.17
2023-04-19T12:04:41.314Z,99569.17
2023-04-19T12:07:10.380Z,99567.52
2023-04-19T12:09:39.417Z,99568.18
2023-04-19T12:12:07.664Z,99566.68
2023-04-19T12:14:35.910Z,99568.73
2023-04-19T12:17:06.104Z,99570.18
2023-04-19T12:19:38.709Z,99562.95
2023-04-19T12:22:14.543Z,99571.64
2023-04-19T12:24:42.916Z,99568.68
2023-04-19T12:27:11.490Z,99572.54
2023-04-19T12:29:39.696Z,99572.23
2023-04-19T12:32:07.923Z,99569.13
2023-04-19T12:34:36.367Z,99571.23
2023-04-19T12:37:04.651Z,99570.70
2023-04-19T12:39:32.720Z,99576.95
2023-04-19T12:42:01.458Z,99584.35
2023-04-19T12:44:29.607Z,99587.87
2023-04-19T12:46:57.898Z,99588.39
2023-04-19T12:49:26.449Z,99591.24
2023-04-19T12:51:57.034Z,99591.10
2023-04-19T12:54:25.543Z,99595.07
2023-04-19T12:56:54.257Z,99598.41
2023-04-19T12:59:22.419Z,99596.70
2023-04-19T13:01:50.644Z,99600.34
2023-04-19T13:04:19.176Z,99598.30
2023-04-19T13:06:48.196Z,99597.38
2023-04-19T13:09:16.238Z,99595.86
2023-04-19T13:11:44.284Z,99596.29
2023-04-19T13:14:12.377Z,99598.55
2023-04-19T13:16:40.427Z,99601.77
2023-04-19T13:19:08.499Z,99600.38
2023-04-19T13:21:37.229Z,99599.06
2023-04-19T13:24:05.679Z,99603.88
2023-04-19T13:26:34.597Z,99598.19
2023-04-19T13:29:03.302Z,99598.04
2023-04-19T13:31:32.418Z,99602.02
2023-04-19T13:34:01.486Z,99597.53
2023-04-19T13:36:29.861Z,99602.15
2023-04-19T13:38:58.250Z,99605.58
2023-04-19T13:41:26.278Z,99601.42
2023-04-19T13:43:54.348Z,99610.39
2023-04-19T13:46:22.776Z,99610.05
2023-04-19T13:48:50.928Z,99615.45
2023-04-19T13:51:18.970Z,99607.19
2023-04-19T13:53:47.035Z,99607.30
2023-04-19T13:56:15.157Z,99608.06
2023-04-19T13:58:43.250Z,99604.41
2023-04-19T14:01:11.413Z,99612.52
2023-04-19T14:03:39.814Z,99613.13
2023-04-19T14:06:08.395Z,99612.46
2023-04-19T14:08:37.237Z,99618.08
2023-04-19T14:11:05.315Z,99618.67
2023-04-19T14:16:25.765Z,99624.07
2023-04-19T14:18:53.944Z,99621.30
2023-04-19T14:21:22.146Z,99621.93
2023-04-19T14:23:50.443Z,99624.00
2023-04-19T14:26:18.541Z,99623.69
2023-04-19T14:28:47.126Z,99628.12
2023-04-19T14:31:15.270Z,99625.04
2023-04-19T14:33:43.529Z,99625.63
2023-04-19T14:36:11.708Z,99623.41
2023-04-19T14:38:40.012Z,99622.48
2023-04-19T14:41:08.664Z,99621.05
2023-04-19T14:43:36.890Z,99618.63
2023-04-19T14:46:05.183Z,99619.12
2023-04-19T14:48:33.586Z,99619.70
2023-04-19T14:51:01.814Z,99622.50
2023-04-19T14:53:30.602Z,99621.80
2023-04-19T14:55:59.990Z,99622.75
2023-04-19T14:58:28.437Z,99617.64
2023-04-19T15:00:56.550Z,99618.65
2023-04-19T15:03:25.467Z,99622.90
2023-04-19T15:05:53.952Z,99619.35
2023-04-19T15:08:30.399Z,99618.96
2023-04-19T15:10:59.590Z,99613.35
2023-04-19T15:13:29.850Z,99613.88
2023-04-19T15:15:58.117Z,99616.16
2023-04-19T15:18:26.317Z,99615.59
2023-04-19T15:20:54.577Z,99617.49
2023-04-19T15:23:23.838Z,99614.11
2023-04-19T15:25:52.508Z,99616.54
2023-04-19T15:28:20.748Z,99610.19
2023-04-19T15:30:59.634Z,99607.64
2023-04-19T15:33:28.350Z,99610.77
2023-04-19T15:35:56.637Z,99604.76
2023-04-19T15:38:27.652Z,99605.30
2023-04-19T15:40:56.352Z,99607.14
2023-04-19T15:43:24.927Z,99606.02
2023-04-19T15:45:53.077Z,99606.88
2023-04-19T15:48:21.617Z,99609.21
2023-04-19T15:50:49.797Z,99604.64
2023-04-19T15:53:18.039Z,99605.53
2023-04-19T15:55:49.500Z,99602.67
2023-04-19T15:58:17.984Z,99605.29
2023-04-19T16:00:46.172Z,99605.37
2023-04-19T16:03:14.524Z,99607.36
2023-04-19T16:05:43.006Z,99603.61
2023-04-19T16:08:17.499Z,99601.46
2023-04-19T16:10:46.547Z,99604.59
2023-04-19T16:13:15.405Z,99603.42
2023-04-19T16:15:44.111Z,99608.02
2023-04-19T16:18:14.083Z,99608.23
2023-04-19T16:20:42.497Z,99614.90
2023-04-19T16:23:10.810Z,99611.19
2023-04-19T16:25:41.435Z,99615.70
2023-04-19T16:28:09.872Z,99618.04
2023-04-19T16:30:38.348Z,99621.77
2023-04-19T16:33:06.649Z,99621.05
2023-04-19T16:35:35.182Z,99620.60
2023-04-19T16:38:04.574Z,99624.73
2023-04-19T16:40:32.660Z,99629.36
2023-04-19T16:43:01.044Z,99633.62
2023-04-19T16:45:29.573Z,99631.30
2023-04-19T16:47:57.838Z,99633.40
2023-04-19T16:50:26.009Z,99631.11
2023-04-19T16:52:54.036Z,99631.88
2023-04-19T16:55:22.333Z,99637.23
2023-04-19T16:57:51.296Z,99641.13
2023-04-19T17:00:20.028Z,99645.13
2023-04-19T17:02:48.582Z,99646.83
2023-04-19T17:05:16.837Z,99648.73
2023-04-19T17:07:45.614Z,99650.65
2023-04-19T17:10:13.712Z,99657.77
2023-04-19T17:12:42.389Z,99655.51
2023-04-19T17:15:10.680Z,99661.17
2023-04-19T17:17:39.089Z,99661.48
2023-04-19T17:20:08.240Z,99666.20
2023-04-19T17:22:36.411Z,99667.73
2023-04-19T17:25:04.810Z,99672.05
2023-04-19T17:27:33.428Z,99674.23
2023-04-19T17:30:01.683Z,99675.16
2023-04-19T17:32:30.129Z,99677.31
2023-04-19T17:34:58.240Z,99682.65
2023-04-19T17:37:26.378Z,99680.95
2023-04-19T17:39:54.575Z,99687.30
2023-04-19T17:42:23.290Z,99693.91
2023-04-19T17:44:51.406Z,99696.94
2023-04-19T17:47:19.849Z,99698.45
2023-04-19T17:49:47.999Z,99694.48
2023-04-19T17:52:16.086Z,99701.32
2023-04-19T17:54:44.227Z,99700.52
2023-04-19T17:57:14.568Z,99698.97
2023-04-19T17:59:42.842Z,99705.09
2023-04-19T18:02:11.666Z,99705.32
2023-04-19T18:04:44.639Z,99708.81
2023-04-19T18:07:13.026Z,99712.80
2023-04-19T18:09:41.292Z,99716.71
2023-04-19T18:12:09.929Z,99716.11
2023-04-19T18:14:38.042Z,99718.98
2023-04-19T18:17:06.555Z,99720.32
2023-04-19T18:19:34.996Z,99721.80
2023-04-19T18:22:03.874Z,99721.54
2023-04-19T18:24:32.249Z,99722.65
2023-04-19T18:27:00.494Z,99726.00
2023-04-19T18:29:28.867Z,99728.55
2023-04-19T18:31:56.955Z,99727.17
2023-04-19T18:34:25.353Z,99731.48
2023-04-19T18:36:58.870Z,99731.38
2023-04-19T18:39:27.223Z,99737.30
2023-04-19T18:41:57.593Z,99735.41
2023-04-19T18:44:49.611Z,99737.56
2023-04-19T18:47:14.807Z,99735.85
2023-04-19T18:49:49.288Z,99736.52
2023-04-19T18:52:27.857Z,99737.01
2023-04-19T18:54:58.464Z,99735.02
2023-04-19T18:57:27.513Z,99735.60
2023-04-19T18:59:56.489Z,99733.88
2023-04-19T19:02:25.633Z,99740.54
2023-04-19T19:04:58.536Z,99735.81
2023-04-19T19:07:35.435Z,99743.84
2023-04-19T19:10:18.273Z,99740.45
2023-04-19T19:12:49.687Z,99737.36
2023-04-19T19:15:18.563Z,99733.34
2023-04-19T19:17:49.890Z,99737.83
2023-04-19T19:20:19.715Z,99736.68
2023-04-19T19:22:48.353Z,99734.31
2023-04-19T19:25:17.199Z,99733.80
2023-04-19T19:28:05.510Z,99734.77
2023-04-19T19:30:35.029Z,99734.38
2023-04-19T19:33:05.039Z,99731.96
2023-04-19T19:35:34.017Z,99730.73
2023-04-19T19:38:02.460Z,99726.78
2023-04-19T19:40:32.656Z,99728.15
2023-04-19T19:43:01.711Z,99725.85
2023-04-19T19:45:30.996Z,99727.38
2023-04-19T19:47:59.986Z,99726.31
2023-04-19T19:53:01.704Z,99723.83
2023-04-19T19:55:30.463Z,99719.17
2023-04-19T20:00:46.129Z,99717.69
2023-04-19T20:03:24.868Z,99719.44
2023-04-19T20:06:05.486Z,99715.47
2023-04-19T20:08:48.340Z,99715.64
2023-04-19T20:11:17.688Z,99713.64
2023-04-19T20:13:46.024Z,99712.98
2023-04-19T20:16:14.797Z,99715.67
2023-04-19T20:18:44.185Z,99711.73
2023-04-19T20:21:12.709Z,99713.08
2023-04-19T20:23:40.866Z,99716.30
2023-04-19T20:26:09.514Z,99712.10
2023-04-19T20:28:38.368Z,99711.20
2023-04-19T20:31:06.469Z,99709.20
2023-04-19T20:33:35.055Z,99707.80
2023-04-19T20:36:03.861Z,99705.98
2023-04-19T20:38:32.085Z,99711.13
2023-04-19T20:41:00.372Z,99710.48
2023-04-19T20:43:28.567Z,99710.29
2023-04-19T20:45:56.840Z,99712.80
2023-04-19T20:48:25.481Z,99711.48
2023-04-19T20:50:53.695Z,99707.52
2023-04-19T20:53:21.965Z,99706.86
2023-04-19T20:55:50.147Z,99707.34
2023-04-19T20:58:18.287Z,99698.67
2023-04-19T21:00:46.915Z,99698.36
2023-04-19T21:03:16.464Z,99696.90
2023-04-19T21:05:44.893Z,99696.06
2023-04-19T21:08:15.187Z,99695.17
2023-04-19T21:10:43.241Z,99696.22
2023-04-19T21:13:11.442Z,99694.33
2023-04-19T21:15:39.658Z,99691.64
2023-04-19T21:18:08.057Z,99689.58
2023-04-19T21:20:36.454Z,99690.84
2023-04-19T21:23:04.554Z,99689.74
2023-04-19T21:25:32.964Z,99693.22
2023-04-19T21:28:01.135Z,99690.56
2023-04-19T21:30:29.799Z,99692.56
2023-04-19T21:32:58.577Z,99690.83
2023-04-19T21:35:26.825Z,99691.00
2023-04-19T21:37:54.824Z,99690.23
2023-04-19T21:40:22.973Z,99689.56
2023-04-19T21:42:51.267Z,99687.83
2023-04-19T21:45:19.335Z,99684.48
2023-04-19T21:47:47.522Z,99679.30
2023-04-19T21:50:15.870Z,99675.88
2023-04-19T21:52:43.960Z,99675.16
2023-04-19T21:55:12.069Z,99676.44
2023-04-19T21:57:40.412Z,99674.52
2023-04-19T22:00:11.762Z,99669.90
2023-04-19T22:02:41.692Z,99670.56
2023-04-19T22:05:09.991Z,99666.32
2023-04-19T22:07:40.183Z,99661.53
2023-04-19T22:10:09.130Z,99661.90
2023-04-19T22:12:51.295Z,99661.17
2023-04-19T22:15:26.599Z,99656.09
2023-04-19T22:17:54.777Z,99650.71
2023-04-19T22:20:24.266Z,99653.70
2023-04-19T22:22:52.652Z,99652.00
2023-04-19T22:25:20.730Z,99648.05
2023-04-19T22:27:49.004Z,99644.90
2023-04-19T22:30:17.121Z,99643.97
2023-04-19T22:32:45.772Z,99642.94
2023-04-19T22:35:14.073Z,99638.66
2023-04-19T22:37:42.576Z,99638.86
2023-04-19T22:40:11.563Z,99636.64
2023-04-19T22:42:39.933Z,99631.20
2023-04-19T22:45:08.719Z,99630.70
2023-04-19T22:47:37.675Z,99627.48
2023-04-19T22:50:07.542Z,99626.73
2023-04-19T22:52:35.862Z,99626.25
2023-04-19T22:55:04.130Z,99624.84
2023-04-19T22:57:32.699Z,99622.96
2023-04-19T23:00:01.026Z,99622.89
2023-04-19T23:02:29.536Z,99617.21
2023-04-19T23:04:58.918Z,99616.59
2023-04-19T23:07:28.986Z,99617.41
2023-04-19T23:09:57.251Z,99613.66
2023-04-19T23:12:25.670Z,99610.67
2023-04-19T23:14:53.934Z,99608.98
2023-04-19T23:17:22.028Z,99604.67
2023-04-19T23:19:50.237Z,99598.10
2023-04-19T23:22:18.179Z,99599.40
2023-04-19T23:24:46.229Z,99597.75
2023-04-19T23:27:14.276Z,99599.05
2023-04-19T23:29:43.260Z,99596.48
2023-04-19T23:32:11.621Z,99594.80
2023-04-19T23:34:40.301Z,99596.92
2023-04-19T23:37:08.980Z,99589.45
2023-04-19T23:39:37.514Z,99590.23
2023-04-19T23:42:05.772Z,99591.08
2023-04-19T23:44:34.071Z,99590.80
2023-04-19T23:47:05.320Z,99586.64
2023-04-19T23:49:33.876Z,99587.54
2023-04-19T23:52:05.516Z,99586.11
2023-04-19T23:54:33.826Z,99581.95
2023-04-19T23:57:02.604Z,99580.32
2023-04-19T23:59:33.189Z,99582.80
